Browns Valley, Minnesota
Current Conditions -  °F | °C
As of 10:16 AM on Wednesday 22 Oct 2014 (Local Time) from KETH Reporting Station
Clear Clear  
Wind Chill: 54°   Ceiling: Unl
Heat Index: 54°   Visibility: 10mi
Dew Point: 43°   Wind: 21mph
Humidity: 67%   Direction: 140°SE
Pressure: 29.93"   Gusts: 25mph
Location:  45.6°N, 96.83°W
Report Text: KETH 221516Z AUTO 14018G22KT 10SM CLR 12/06 A2993 RMK AO2
Loading
Personal Weather Stations






























Interactive Weather Map
Tropical Storm Tracking
New forecast layout! Learn more

10-Day Weather Forecast

Advertisements
Track Severe Weather on mobile